Aérodrome :
LOGIN :

S'inscrire | Disclaimer

   EN    FR    IT 

 










Légende :    VFR   VFR Marginal   IFR   IFR Intensif   IFR Très Intensif
Visi : 
Plafond : 
>= 8 km
>= 3000ft
5 à 8 km
1000 à 3000 ft
1500m à 5 km
500 à 1000 ft
800 à 1500m
200 à 500 ft
< 800m
< 200 ft
Symboles :   Orages  Brouillard  Fortes neiges  Fortes précipitations  Vent > 20 kt
SIGMETs :   Divers  Orages  Givrage  Turbulence  Onde Orograph.  Cendres Volcan.






- Altitude de l'aérodrome : 13 ft
- Code IATA : LYX


EGMD - Lydd

DERNIER METAR :
  • 240150Z AUTO 13003KT 9999 SCT014/// BKN020/// OVC025/// 06/05 Q1025

METARs EXPIRÉS :
  • 240120Z AUTO 13003KT 9999 BKN014/// OVC029/// 06/05 Q1025
  • 240050Z AUTO 12003KT 9999 BKN013/// OVC028/// 06/05 Q1025
  • 240020Z AUTO 13003KT 9999 FEW013/// BKN027/// OVC032/// 07/05 Q1026
  • 232350Z AUTO 11005KT 9999 FEW010/// BKN015/// BKN021/// 07/06 Q1026
  • 232320Z AUTO 04004KT 9999 SCT010/// OVC027/// 07/06 Q1026

TAF TAF EGMD
Valide du 24 à 00h jusqu'au 24 à 09h UTC


232306Z 2400/2409 03005KT 9999 BKN022
PROB30
TEMPO 2400/2409 8000 BKN012
ATIS : +44 1797 322 422



MET'MAP, la Météo Aéronautique d'un coup d'oeil ! - Copyright ORBIFLY Décembre 2007 - Disclaimer

ORBIFLY MET'MAP TEAM :

Programmation & Développement : Alexandra Zaïnal
Sur une idée originale de : Baudouin d'Aumeries
Assistance à la programmation : Marc-Olivier Méhu
Soutien technique & logistique : Manuel Goepfert

Contact : metmap@orbifly.com




SOURCES & CREDITS :

   NOAA